Time;durP1;ratioP1;P1;durP2;ratioP2;P2;SDS_P1;SDS_P2;PMS_P1;PMS_P2;Temp;Humidity;BMP_temperature;BMP_pressure;BME280_temperature;BME280_humidity;BME280_pressure;Samples;Min_cycle;Max_cycle;Signal;HPM_P1;HPM_P2
2023/03/24 00:00:10;;;;;;;14.53;8.83;;;8.40;99.90;;;;;;4160954;28;20095;-64
2023/03/24 00:02:12;;;;;;;11.03;7.47;;;8.40;99.90;;;;;;4161690;28;20048;-66
2023/03/24 00:04:14;;;;;;;12.67;8.70;;;8.30;99.90;;;;;;4161310;28;20087;-64
2023/03/24 00:06:17;;;;;;;16.00;8.07;;;8.30;99.90;;;;;;4162083;28;20452;-64
2023/03/24 00:08:18;;;;;;;13.67;8.13;;;8.30;99.90;;;;;;4161341;28;20346;-64
2023/03/24 00:10:21;;;;;;;15.37;8.67;;;8.30;99.90;;;;;;4152720;28;20157;-65
2023/03/24 00:12:22;;;;;;;14.00;8.80;;;8.30;99.90;;;;;;4144861;28;20045;-63
2023/03/24 00:14:24;;;;;;;15.97;8.33;;;8.20;99.90;;;;;;4145671;28;20034;-64
2023/03/24 00:16:25;;;;;;;11.90;7.70;;;8.20;99.90;;;;;;4145086;28;20818;-64
2023/03/24 00:18:26;;;;;;;10.70;7.50;;;8.20;99.90;;;;;;4145177;28;20058;-63
2023/03/24 00:20:28;;;;;;;13.20;7.27;;;8.20;99.90;;;;;;4145184;28;20029;-66
2023/03/24 00:22:29;;;;;;;16.63;7.43;;;8.20;99.90;;;;;;4144348;28;20085;-68
2023/03/24 00:24:31;;;;;;;10.37;6.80;;;8.20;99.90;;;;;;4145722;28;20038;-64
2023/03/24 00:26:33;;;;;;;10.90;6.33;;;8.20;99.90;;;;;;4144597;28;20080;-66
2023/03/24 00:28:36;;;;;;;10.40;6.67;;;8.10;99.90;;;;;;4145849;28;20960;-64
2023/03/24 00:30:40;;;;;;;12.37;6.47;;;8.20;99.90;;;;;;4144492;28;20359;-64
2023/03/24 00:32:41;;;;;;;8.37;5.87;;;8.20;99.90;;;;;;4145734;28;20901;-64
2023/03/24 00:34:43;;;;;;;9.37;5.80;;;8.20;99.90;;;;;;4144181;28;20088;-65
2023/03/24 00:36:44;;;;;;;9.60;6.17;;;8.20;99.90;;;;;;4145209;28;20046;-64
2023/03/24 00:38:48;;;;;;;8.13;5.40;;;8.20;99.90;;;;;;4145595;28;20041;-64
2023/03/24 00:40:50;;;;;;;11.43;5.87;;;8.20;99.90;;;;;;4145293;28;20046;-65
2023/03/24 00:42:51;;;;;;;13.20;5.90;;;8.20;99.90;;;;;;4144565;28;20030;-63
2023/03/24 00:44:53;;;;;;;8.57;5.63;;;8.20;99.90;;;;;;4151598;28;20421;-64
2023/03/24 00:46:59;;;;;;;11.60;6.33;;;8.10;99.90;;;;;;4157285;28;20104;-63
2023/03/24 00:49:04;;;;;;;15.27;8.10;;;8.10;99.90;;;;;;4147923;28;20030;-64
2023/03/24 00:51:09;;;;;;;18.63;9.03;;;8.10;99.90;;;;;;4160383;28;20428;-64
2023/03/24 00:53:10;;;;;;;18.73;9.03;;;8.10;99.90;;;;;;4161419;28;20060;-65
2023/03/24 00:55:14;;;;;;;14.10;8.17;;;8.00;99.90;;;;;;4161107;28;20485;-64
2023/03/24 00:57:24;;;;;;;10.97;6.87;;;8.00;99.90;;;;;;4161018;28;20427;-64
2023/03/24 00:59:28;;;;;;;10.32;6.40;;;7.90;99.90;;;;;;4160895;28;20148;-64
2023/03/24 01:01:33;;;;;;;10.57;5.57;;;7.90;99.90;;;;;;4160944;28;20029;-64
2023/03/24 01:03:42;;;;;;;11.83;6.20;;;8.00;99.90;;;;;;4160967;28;20095;-64
2023/03/24 01:05:47;;;;;;;8.60;5.57;;;7.90;99.90;;;;;;4160560;28;20428;-67
2023/03/24 01:07:51;;;;;;;10.10;6.30;;;8.00;99.90;;;;;;4152344;28;20037;-67
2023/03/24 01:09:58;;;;;;;11.20;6.23;;;7.90;99.90;;;;;;4156653;28;20030;-68
2023/03/24 01:11:59;;;;;;;12.60;7.90;;;7.90;99.90;;;;;;4157194;28;20029;-64
2023/03/24 01:14:01;;;;;;;10.33;5.80;;;7.90;99.90;;;;;;4160556;28;20041;-64
2023/03/24 01:16:02;;;;;;;9.17;6.23;;;7.80;99.90;;;;;;4161694;28;20030;-65
2023/03/24 01:18:03;;;;;;;9.03;5.87;;;7.80;99.90;;;;;;4153988;28;20096;-64
2023/03/24 01:20:10;;;;;;;9.63;5.93;;;7.80;99.90;;;;;;4145139;28;20087;-64
2023/03/24 01:22:11;;;;;;;13.50;6.93;;;7.80;99.90;;;;;;4143728;28;20046;-64
2023/03/24 01:24:12;;;;;;;12.10;6.57;;;7.80;99.90;;;;;;4148494;28;20088;-64
2023/03/24 01:26:14;;;;;;;10.00;6.73;;;7.80;99.90;;;;;;4147197;28;20494;-63
2023/03/24 01:28:20;;;;;;;14.67;7.23;;;7.70;99.90;;;;;;4148602;28;20052;-64
2023/03/24 01:30:27;;;;;;;14.80;8.53;;;7.70;99.90;;;;;;4147462;28;20080;-63
2023/03/24 01:32:28;;;;;;;13.57;7.67;;;7.70;99.90;;;;;;4148500;28;20382;-63
2023/03/24 01:34:30;;;;;;;15.10;7.87;;;7.60;99.90;;;;;;4147415;28;20117;-67
2023/03/24 01:36:32;;;;;;;15.17;8.67;;;7.60;99.90;;;;;;4150358;28;20022;-64
2023/03/24 01:38:33;;;;;;;14.67;9.10;;;7.50;99.90;;;;;;4162324;28;20021;-63
2023/03/24 01:40:37;;;;;;;15.33;8.60;;;7.50;99.90;;;;;;4156640;28;20413;-68
2023/03/24 01:42:39;;;;;;;19.17;9.60;;;7.50;99.90;;;;;;4164056;28;20496;-65
2023/03/24 01:44:40;;;;;;;16.70;8.50;;;7.50;99.90;;;;;;4163642;28;20033;-67
2023/03/24 01:46:41;;;;;;;13.43;7.30;;;7.50;99.90;;;;;;4163973;28;20152;-63
2023/03/24 01:48:43;;;;;;;15.20;8.20;;;7.40;99.90;;;;;;4163794;28;20038;-66
2023/03/24 01:50:53;;;;;;;14.67;8.17;;;7.40;99.90;;;;;;4164405;28;20363;-64
2023/03/24 01:52:54;;;;;;;14.63;7.85;;;7.40;99.90;;;;;;4163414;28;20033;-63
2023/03/24 01:55:10;;;;;;;13.43;8.57;;;7.30;99.90;;;;;;4164492;28;20111;-64
2023/03/24 01:57:19;;;;;;;18.47;8.87;;;7.20;99.90;;;;;;4162906;28;20026;-64
2023/03/24 01:59:24;;;;;;;19.30;9.67;;;7.20;99.90;;;;;;4163935;28;20091;-65
2023/03/24 02:01:29;;;;;;;20.33;10.67;;;7.30;99.90;;;;;;4163181;28;20445;-64
2023/03/24 02:03:35;;;;;;;19.90;10.70;;;7.20;99.90;;;;;;4161251;28;20517;-65
2023/03/24 02:05:38;;;;;;;20.10;9.60;;;7.20;99.90;;;;;;4146632;28;20034;-66
2023/03/24 02:07:45;;;;;;;18.97;10.80;;;7.20;99.90;;;;;;4147617;28;20108;-65
2023/03/24 02:09:47;;;;;;;22.13;10.10;;;7.10;99.90;;;;;;4155164;28;20033;-64
2023/03/24 02:11:48;;;;;;;14.40;7.97;;;7.10;99.90;;;;;;4162519;28;20041;-63
2023/03/24 02:13:50;;;;;;;16.87;9.43;;;7.00;99.90;;;;;;4162286;28;20087;-65
2023/03/24 02:15:54;;;;;;;13.00;7.60;;;7.00;99.90;;;;;;4152861;28;20414;-66
2023/03/24 02:18:24;;;;;;;12.57;6.53;;;7.00;99.90;;;;;;4146449;28;20096;-64
2023/03/24 02:20:45;;;;;;;10.02;5.47;;;6.90;99.90;;;;;;4143639;28;20042;-64
2023/03/24 02:23:13;;;;;;;9.77;5.80;;;7.00;99.90;;;;;;4146444;28;20069;-65
2023/03/24 02:25:41;;;;;;;8.43;5.17;;;7.00;99.90;;;;;;4147636;28;20527;-64
2023/03/24 02:28:15;;;;;;;14.60;6.30;;;7.00;99.90;;;;;;4142507;28;20120;-67
2023/03/24 02:30:35;;;;;;;10.07;5.40;;;7.00;99.90;;;;;;4146952;28;20080;-63
2023/03/24 02:32:36;;;;;;;9.50;5.15;;;7.00;99.90;;;;;;4131178;28;20054;-67
2023/03/24 02:35:15;;;;;;;8.30;4.60;;;7.00;99.90;;;;;;4129358;28;20081;-67
2023/03/24 02:37:35;;;;;;;6.03;4.27;;;7.00;99.90;;;;;;4160789;28;20075;-63
2023/03/24 02:39:57;;;;;;;7.15;4.43;;;6.90;99.90;;;;;;4162721;28;20029;-65
2023/03/24 02:42:16;;;;;;;8.73;4.47;;;6.90;99.90;;;;;;4163775;28;20029;-62
2023/03/24 02:44:45;;;;;;;10.43;5.50;;;6.90;99.90;;;;;;4155794;28;20042;-63
2023/03/24 02:47:14;;;;;;;8.87;4.90;;;6.90;99.90;;;;;;4150490;28;20046;-63
2023/03/24 02:49:36;;;;;;;9.10;5.13;;;7.00;99.90;;;;;;4146072;28;20033;-64
2023/03/24 02:52:14;;;;;;;12.13;6.83;;;6.90;99.90;;;;;;4146740;28;20046;-64
2023/03/24 02:54:33;;;;;;;40.87;19.43;;;6.80;99.90;;;;;;4146341;28;20478;-67
2023/03/24 02:57:06;;;;;;;70.87;36.33;;;6.70;99.90;;;;;;4146154;28;20418;-67
2023/03/24 02:59:24;;;;;;;88.93;40.73;;;6.70;99.90;;;;;;4147058;28;20033;-64
2023/03/24 03:01:40;;;;;;;76.77;36.43;;;6.60;99.90;;;;;;4145970;28;20460;-65
2023/03/24 03:03:50;;;;;;;86.10;39.97;;;6.50;99.90;;;;;;4147037;28;20034;-64
2023/03/24 03:06:03;;;;;;;55.72;29.27;;;6.40;99.90;;;;;;4152971;28;20549;-64
2023/03/24 03:08:08;;;;;;;50.50;25.23;;;6.40;99.90;;;;;;4163321;28;20136;-65
2023/03/24 03:10:31;;;;;;;37.67;17.33;;;6.30;99.90;;;;;;4162238;28;20072;-63
2023/03/24 03:12:36;;;;;;;22.97;12.73;;;6.30;99.90;;;;;;4151004;28;20482;-63
2023/03/24 03:14:43;;;;;;;15.47;9.30;;;6.30;99.90;;;;;;4145902;28;20048;-65
2023/03/24 03:16:52;;;;;;;19.50;10.00;;;6.30;99.90;;;;;;4146670;28;20458;-65
2023/03/24 03:19:00;;;;;;;18.40;8.80;;;6.30;99.90;;;;;;4145995;28;20064;-63
2023/03/24 03:21:09;;;;;;;18.37;9.40;;;6.20;99.90;;;;;;4146651;28;20434;-64
2023/03/24 03:23:14;;;;;;;18.60;9.37;;;6.20;99.90;;;;;;4145533;28;20025;-64
2023/03/24 03:25:21;;;;;;;25.37;9.93;;;6.20;99.90;;;;;;4162340;28;20030;-63
2023/03/24 03:27:38;;;;;;;16.50;9.07;;;6.10;99.90;;;;;;4161919;28;20106;-64
2023/03/24 03:29:43;;;;;;;15.67;9.43;;;6.10;99.90;;;;;;4162976;28;20095;-64
2023/03/24 03:32:06;;;;;;;17.20;9.53;;;6.10;99.90;;;;;;4161734;28;20469;-63
2023/03/24 03:34:40;;;;;;;17.83;8.60;;;6.00;99.90;;;;;;4162923;28;20077;-63
2023/03/24 03:36:55;;;;;;;17.07;9.27;;;6.00;99.90;;;;;;4104901;28;20123;-64
2023/03/24 03:39:23;;;;;;;16.00;8.87;;;6.00;99.90;;;;;;4146408;28;20486;-64
2023/03/24 03:41:25;;;;;;;19.33;9.73;;;5.90;99.90;;;;;;4159659;28;20063;-63
2023/03/24 03:43:29;;;;;;;16.73;8.83;;;5.90;99.90;;;;;;4162285;28;20083;-65
2023/03/24 03:45:31;;;;;;;20.43;10.03;;;5.90;99.90;;;;;;4161124;28;20033;-65
2023/03/24 03:47:33;;;;;;;15.63;8.80;;;5.80;99.90;;;;;;4162132;28;20120;-62
2023/03/24 03:49:35;;;;;;;18.53;9.97;;;5.80;99.90;;;;;;4162092;28;20033;-64
2023/03/24 03:51:36;;;;;;;18.50;9.33;;;5.80;99.90;;;;;;4162542;28;20084;-65
2023/03/24 03:53:43;;;;;;;19.90;10.37;;;5.70;99.90;;;;;;4161587;28;20056;-64
2023/03/24 03:55:46;;;;;;;15.07;9.10;;;5.60;99.90;;;;;;4162531;28;20034;-64
2023/03/24 03:57:47;;;;;;;12.50;8.20;;;5.60;99.90;;;;;;4161510;28;20083;-65
2023/03/24 03:59:48;;;;;;;20.83;8.90;;;5.60;99.90;;;;;;4161594;28;20034;-66
2023/03/24 04:01:50;;;;;;;13.10;8.47;;;5.70;99.90;;;;;;4161398;28;20021;-64
2023/03/24 04:04:06;;;;;;;15.47;8.83;;;5.70;99.90;;;;;;4158491;28;20022;-64
2023/03/24 04:06:36;;;;;;;20.10;9.47;;;5.60;99.90;;;;;;4157849;28;20556;-67
2023/03/24 04:08:46;;;;;;;15.73;8.90;;;5.60;99.90;;;;;;4151525;28;20111;-64
2023/03/24 04:10:53;;;;;;;19.73;9.70;;;5.50;99.90;;;;;;4161233;28;20029;-64
2023/03/24 04:13:13;;;;;;;31.70;11.27;;;5.50;99.90;;;;;;4162323;28;20067;-65
2023/03/24 04:15:23;;;;;;;22.50;10.80;;;5.50;99.90;;;;;;4161273;28;20420;-64
2023/03/24 04:17:32;;;;;;;21.43;10.67;;;5.40;99.90;;;;;;4161859;28;20486;-67
2023/03/24 04:19:48;;;;;;;18.40;10.33;;;5.40;99.90;;;;;;4161502;28;20556;-64
2023/03/24 04:22:11;;;;;;;15.63;8.93;;;5.30;99.90;;;;;;4162189;28;20090;-63
2023/03/24 04:24:36;;;;;;;16.13;8.93;;;5.30;99.90;;;;;;4160718;28;20072;-64
2023/03/24 04:26:44;;;;;;;18.30;8.80;;;5.40;99.90;;;;;;4161917;28;20041;-63
2023/03/24 04:28:56;;;;;;;18.90;9.50;;;5.40;99.90;;;;;;4161046;28;20389;-64
2023/03/24 04:31:15;;;;;;;16.00;9.43;;;5.30;99.90;;;;;;4160264;28;20087;-65
2023/03/24 04:33:27;;;;;;;14.87;9.10;;;5.30;99.90;;;;;;4160868;28;20045;-65
2023/03/24 04:35:40;;;;;;;20.83;9.30;;;5.30;99.90;;;;;;4128961;28;20034;-64
2023/03/24 04:37:42;;;;;;;21.03;9.73;;;5.30;99.90;;;;;;4128531;28;20034;-67
2023/03/24 04:39:46;;;;;;;22.63;10.60;;;5.40;99.90;;;;;;4146411;28;20933;-64
2023/03/24 04:41:48;;;;;;;18.20;9.30;;;5.40;99.90;;;;;;4160745;28;20615;-64
2023/03/24 04:43:49;;;;;;;16.43;8.70;;;5.40;99.90;;;;;;4161894;28;20424;-65
2023/03/24 04:45:56;;;;;;;17.77;8.30;;;5.40;99.90;;;;;;4159097;28;20045;-63
2023/03/24 04:48:00;;;;;;;16.57;8.27;;;5.60;99.90;;;;;;4159995;28;20041;-64
2023/03/24 04:50:08;;;;;;;20.20;9.30;;;5.90;99.90;;;;;;4142687;28;20038;-65
2023/03/24 04:52:09;;;;;;;19.73;8.93;;;6.30;99.90;;;;;;4145471;28;20025;-64
2023/03/24 04:54:10;;;;;;;17.23;9.43;;;6.70;99.90;;;;;;4144069;28;20104;-63
2023/03/24 04:56:46;;;;;;;21.80;9.33;;;7.10;99.90;;;;;;4145429;28;21493;-64
2023/03/24 04:58:47;;;;;;;22.27;10.10;;;7.70;99.90;;;;;;4143975;28;20433;-64
2023/03/24 05:00:49;;;;;;;14.50;8.60;;;8.00;99.90;;;;;;4145211;28;20425;-64
2023/03/24 05:02:51;;;;;;;23.73;9.03;;;8.40;99.90;;;;;;4146585;28;20026;-64
2023/03/24 05:04:52;;;;;;;15.60;8.70;;;8.80;99.90;;;;;;4156998;28;20072;-64
2023/03/24 05:06:54;;;;;;;14.60;7.40;;;9.30;99.90;;;;;;4152856;28;20493;-63
2023/03/24 05:08:57;;;;;;;16.37;7.90;;;9.70;99.90;;;;;;4145095;28;20433;-65
2023/03/24 05:10:59;;;;;;;19.60;8.47;;;10.10;99.90;;;;;;4147804;28;20072;-64
2023/03/24 05:13:00;;;;;;;19.63;8.93;;;10.60;99.90;;;;;;4151605;28;20438;-64
2023/03/24 05:15:02;;;;;;;13.57;8.33;;;11.20;99.90;;;;;;4143570;28;20064;-62
2023/03/24 05:17:03;;;;;;;17.27;8.03;;;11.80;99.90;;;;;;4144400;28;20021;-64
2023/03/24 05:19:05;;;;;;;13.53;7.17;;;12.20;99.90;;;;;;4144659;28;20077;-63
2023/03/24 05:21:06;;;;;;;15.37;6.37;;;12.50;99.90;;;;;;4143262;28;20108;-64
2023/03/24 05:23:07;;;;;;;13.77;6.53;;;12.80;99.90;;;;;;4142585;28;20560;-64
2023/03/24 05:25:09;;;;;;;20.97;8.80;;;13.10;99.90;;;;;;4143726;28;20146;-64
2023/03/24 05:27:10;;;;;;;18.93;8.33;;;13.60;99.90;;;;;;4144600;28;20045;-64
2023/03/24 05:29:11;;;;;;;14.97;8.83;;;13.90;99.90;;;;;;4156850;28;20444;-67
2023/03/24 05:31:13;;;;;;;17.33;7.67;;;14.20;99.90;;;;;;4152571;28;20506;-64
2023/03/24 05:33:14;;;;;;;20.03;8.50;;;14.40;99.90;;;;;;4143575;28;20034;-64
2023/03/24 05:35:15;;;;;;;16.48;6.55;;;14.50;99.90;;;;;;4144878;28;20042;-64
2023/03/24 05:37:17;;;;;;;19.50;5.00;;;14.30;99.90;;;;;;4138921;28;20038;-64
2023/03/24 05:39:18;;;;;;;14.77;7.35;;;14.20;99.90;;;;;;4144977;28;20040;-65
2023/03/24 05:41:19;;;;;;;16.13;7.22;;;14.00;99.90;;;;;;4131657;28;20030;-66
2023/03/24 05:43:20;;;;;;;15.93;6.10;;;13.90;99.90;;;;;;4144806;28;20041;-68
2023/03/24 05:45:21;;;;;;;8.93;5.07;;;13.90;99.90;;;;;;4151362;28;20464;-64
2023/03/24 05:47:22;;;;;;;16.50;5.47;;;13.90;99.90;;;;;;4143900;28;20042;-68
2023/03/24 05:49:23;;;;;;;10.70;5.80;;;13.90;99.90;;;;;;4148346;28;20064;-64
2023/03/24 05:51:24;;;;;;;11.98;5.13;;;13.80;99.90;;;;;;4147049;28;20079;-64
2023/03/24 05:53:26;;;;;;;13.20;5.10;;;14.10;99.90;;;;;;4146544;28;20104;-66
2023/03/24 05:55:27;;;;;;;11.35;4.50;;;14.50;99.90;;;;;;4142717;28;20107;-67
2023/03/24 05:57:29;;;;;;;15.32;4.35;;;15.00;99.30;;;;;;4147118;28;20092;-65
2023/03/24 05:59:30;;;;;;;15.50;4.80;;;15.20;98.10;;;;;;4143341;28;20540;-62
2023/03/24 06:01:31;;;;;;;9.55;4.95;;;15.60;97.90;;;;;;4145380;28;20042;-65
2023/03/24 06:03:33;;;;;;;16.08;5.70;;;15.90;97.40;;;;;;4145258;28;20100;-64
2023/03/24 06:05:34;;;;;;;11.50;5.80;;;16.30;96.90;;;;;;4144216;28;20084;-65
2023/03/24 06:07:37;;;;;;;7.45;4.40;;;16.60;96.20;;;;;;4142881;28;20100;-64
2023/03/24 06:09:41;;;;;;;9.95;4.60;;;16.80;95.40;;;;;;4147000;28;20104;-64
2023/03/24 06:11:43;;;;;;;10.40;4.82;;;16.70;94.90;;;;;;4146177;28;20042;-65
2023/03/24 06:13:44;;;;;;;11.48;4.40;;;16.70;94.50;;;;;;4146908;28;20096;-66
2023/03/24 06:15:48;;;;;;;9.18;4.72;;;16.70;94.20;;;;;;4146037;28;20065;-65
2023/03/24 06:17:49;;;;;;;7.63;4.63;;;16.70;93.90;;;;;;4146844;28;20096;-65
2023/03/24 06:19:50;;;;;;;6.90;4.20;;;16.70;93.80;;;;;;4146337;28;20371;-66
2023/03/24 06:21:53;;;;;;;9.05;4.45;;;16.80;93.50;;;;;;4146975;28;20141;-64
2023/03/24 06:23:56;;;;;;;10.15;4.97;;;17.10;93.20;;;;;;4146831;28;20021;-64
2023/03/24 06:25:57;;;;;;;7.72;4.90;;;17.00;92.60;;;;;;4146608;28;20018;-66
2023/03/24 06:28:03;;;;;;;7.45;4.60;;;17.00;92.50;;;;;;4146462;28;20062;-64
2023/03/24 06:30:04;;;;;;;6.47;4.20;;;17.20;92.20;;;;;;4146186;28;20108;-65
2023/03/24 06:32:06;;;;;;;10.30;4.47;;;17.40;92.00;;;;;;4146873;28;20689;-68
2023/03/24 06:34:07;;;;;;;8.00;4.13;;;17.50;91.60;;;;;;4146330;28;20092;-65
2023/03/24 06:36:09;;;;;;;6.82;3.80;;;17.70;91.40;;;;;;4146878;28;20120;-65
2023/03/24 06:38:10;;;;;;;11.02;5.10;;;17.90;91.10;;;;;;4145702;28;20374;-64
2023/03/24 06:40:14;;;;;;;15.52;4.47;;;17.50;90.70;;;;;;4147106;28;20056;-66
2023/03/24 06:42:16;;;;;;;6.45;4.20;;;17.30;90.80;;;;;;4145361;28;20046;-64
2023/03/24 06:44:17;;;;;;;8.07;4.20;;;17.30;90.80;;;;;;4146812;28;20069;-65
2023/03/24 06:46:18;;;;;;;7.18;4.20;;;16.90;90.80;;;;;;4145633;28;20045;-66
2023/03/24 06:48:20;;;;;;;6.07;3.65;;;17.20;91.00;;;;;;4146792;28;20042;-63
2023/03/24 06:50:25;;;;;;;5.95;3.97;;;17.30;90.50;;;;;;4145203;28;20096;-63
2023/03/24 06:52:27;;;;;;;8.57;4.15;;;17.40;90.40;;;;;;4146492;28;20727;-68
2023/03/24 06:54:28;;;;;;;8.18;3.90;;;17.70;90.10;;;;;;4149100;28;20529;-65
2023/03/24 06:56:29;;;;;;;10.13;4.32;;;17.90;89.80;;;;;;4162897;28;20026;-65
2023/03/24 06:58:30;;;;;;;12.35;4.47;;;18.20;88.90;;;;;;4162926;28;20102;-66
2023/03/24 07:00:31;;;;;;;8.75;4.70;;;18.30;88.50;;;;;;4143554;28;20105;-69
2023/03/24 07:02:34;;;;;;;8.82;4.35;;;18.60;87.90;;;;;;4128923;28;20093;-67
2023/03/24 07:04:36;;;;;;;8.30;4.60;;;18.80;87.10;;;;;;4129272;28;20037;-65
2023/03/24 07:06:38;;;;;;;7.60;4.20;;;18.80;86.70;;;;;;4145725;28;20509;-66
2023/03/24 07:08:39;;;;;;;7.35;4.50;;;18.70;86.50;;;;;;4145252;28;20096;-65
2023/03/24 07:10:41;;;;;;;5.57;4.32;;;18.90;86.50;;;;;;4146965;28;20041;-67
2023/03/24 07:12:42;;;;;;;7.38;4.43;;;18.90;85.50;;;;;;4149385;28;20084;-66
2023/03/24 07:14:43;;;;;;;11.00;4.47;;;19.20;85.30;;;;;;4163037;28;20535;-65
2023/03/24 07:16:45;;;;;;;11.90;4.75;;;19.00;84.50;;;;;;4161420;28;20049;-65
2023/03/24 07:18:46;;;;;;;5.80;4.28;;;18.80;84.70;;;;;;4162699;28;20079;-68
2023/03/24 07:20:47;;;;;;;10.00;5.07;;;18.30;84.60;;;;;;4161243;28;20544;-66
2023/03/24 07:22:48;;;;;;;11.93;4.82;;;18.00;85.70;;;;;;4161113;28;20041;-65
2023/03/24 07:24:51;;;;;;;6.93;4.03;;;17.80;86.70;;;;;;4149175;28;20029;-66
2023/03/24 07:26:52;;;;;;;9.10;4.65;;;18.10;86.10;;;;;;4147087;28;20104;-65
2023/03/24 07:28:53;;;;;;;12.75;4.97;;;18.60;85.40;;;;;;4161878;28;20064;-64
2023/03/24 07:30:54;;;;;;;13.25;4.25;;;19.00;84.40;;;;;;4161958;28;20446;-65
2023/03/24 07:32:56;;;;;;;9.52;5.65;;;19.20;83.80;;;;;;4160443;28;20060;-65
2023/03/24 07:34:57;;;;;;;11.18;5.20;;;19.20;83.00;;;;;;4160034;28;20475;-65
2023/03/24 07:36:58;;;;;;;10.90;5.28;;;18.60;83.00;;;;;;4163012;28;20087;-65
2023/03/24 07:38:59;;;;;;;16.95;7.00;;;18.00;84.40;;;;;;4161439;28;20080;-65
2023/03/24 07:41:01;;;;;;;15.10;6.80;;;17.70;84.80;;;;;;4163406;28;20099;-67
2023/03/24 07:43:06;;;;;;;24.23;8.00;;;17.50;85.60;;;;;;4155704;28;20616;-64
2023/03/24 07:45:11;;;;;;;12.40;8.00;;;17.00;86.80;;;;;;4149521;28;20030;-66
2023/03/24 07:47:12;;;;;;;18.83;9.52;;;16.90;88.20;;;;;;4143842;28;20486;-64
2023/03/24 07:49:14;;;;;;;14.23;7.63;;;16.90;88.50;;;;;;4154097;28;20026;-65
2023/03/24 07:51:16;;;;;;;19.85;7.45;;;17.00;88.40;;;;;;4146941;28;20107;-62
2023/03/24 07:53:18;;;;;;;17.95;7.80;;;16.90;88.50;;;;;;4145674;28;20057;-64
2023/03/24 07:55:20;;;;;;;12.27;6.43;;;16.80;88.80;;;;;;4144409;28;20045;-64
2023/03/24 07:57:22;;;;;;;17.85;6.75;;;16.60;89.10;;;;;;4145419;28;20478;-66
2023/03/24 07:59:23;;;;;;;15.75;6.72;;;16.30;89.80;;;;;;4145102;28;20030;-64
2023/03/24 08:01:24;;;;;;;17.33;6.10;;;16.00;90.50;;;;;;4145409;28;20096;-65
2023/03/24 08:03:26;;;;;;;14.68;5.53;;;15.80;90.80;;;;;;4144816;28;20034;-63
2023/03/24 08:05:29;;;;;;;15.55;6.00;;;15.60;90.80;;;;;;4144623;28;20067;-64
2023/03/24 08:07:30;;;;;;;18.05;5.30;;;15.60;91.00;;;;;;4145664;28;20418;-66
2023/03/24 08:09:31;;;;;;;7.50;5.20;;;15.50;91.00;;;;;;4145870;28;20093;-64
2023/03/24 08:11:32;;;;;;;12.70;6.20;;;15.50;91.00;;;;;;4146159;28;20099;-64
2023/03/24 08:13:34;;;;;;;7.22;5.68;;;15.60;91.20;;;;;;4144672;28;20080;-65
2023/03/24 08:15:36;;;;;;;9.38;5.78;;;15.80;91.00;;;;;;4157715;28;20057;-65
2023/03/24 08:17:38;;;;;;;16.58;8.10;;;15.70;91.10;;;;;;4160233;28;20041;-65
2023/03/24 08:19:39;;;;;;;16.80;8.25;;;15.70;91.40;;;;;;4152630;28;20034;-64
2023/03/24 08:21:41;;;;;;;12.85;7.30;;;15.60;91.70;;;;;;4144662;28;20038;-63
2023/03/24 08:23:42;;;;;;;13.27;7.15;;;15.60;92.10;;;;;;4146942;28;20429;-63
2023/03/24 08:25:43;;;;;;;12.13;7.28;;;15.50;92.40;;;;;;4145834;28;20092;-65
2023/03/24 08:27:45;;;;;;;12.52;6.10;;;15.40;92.70;;;;;;4145604;28;20079;-65
2023/03/24 08:29:47;;;;;;;7.40;5.40;;;15.30;92.70;;;;;;4144659;28;20112;-64
2023/03/24 08:31:48;;;;;;;13.88;5.82;;;15.40;92.70;;;;;;4144216;28;20192;-63
2023/03/24 08:33:49;;;;;;;13.43;6.53;;;15.70;92.60;;;;;;4144726;28;20034;-63
2023/03/24 08:35:56;;;;;;;11.55;6.97;;;15.70;92.70;;;;;;4149863;28;20045;-64
2023/03/24 08:38:00;;;;;;;11.80;7.63;;;15.70;93.10;;;;;;4145196;28;20072;-65
2023/03/24 08:40:02;;;;;;;16.00;8.25;;;15.80;93.60;;;;;;4144586;28;20021;-64
2023/03/24 08:42:04;;;;;;;15.35;8.25;;;15.80;94.00;;;;;;4145370;28;20352;-65
2023/03/24 08:44:06;;;;;;;13.05;8.52;;;15.90;94.20;;;;;;4143977;28;20046;-64
2023/03/24 08:46:08;;;;;;;16.23;8.93;;;16.00;94.60;;;;;;4145055;28;20038;-65
2023/03/24 08:48:09;;;;;;;21.40;9.35;;;16.10;94.80;;;;;;4143570;28;20115;-64
2023/03/24 08:50:11;;;;;;;13.93;9.30;;;16.30;95.00;;;;;;4145217;28;20441;-64
2023/03/24 08:52:12;;;;;;;13.25;9.48;;;16.40;95.10;;;;;;4144355;28;20038;-63
2023/03/24 08:54:13;;;;;;;12.10;8.50;;;16.50;95.30;;;;;;4144224;28;20033;-64
2023/03/24 08:56:14;;;;;;;17.10;9.35;;;16.50;95.40;;;;;;4160531;28;20025;-63
2023/03/24 08:58:18;;;;;;;14.88;9.55;;;16.50;95.80;;;;;;4161617;28;20030;-65
2023/03/24 09:00:21;;;;;;;16.73;8.68;;;16.60;95.70;;;;;;4156615;28;20469;-65
2023/03/24 09:02:22;;;;;;;19.02;8.15;;;16.70;95.80;;;;;;4152685;28;20470;-64
2023/03/24 09:04:23;;;;;;;12.82;7.50;;;16.90;95.70;;;;;;4143499;28;20077;-64
2023/03/24 09:06:26;;;;;;;14.02;7.80;;;17.00;95.60;;;;;;4143665;28;20108;-63
2023/03/24 09:08:27;;;;;;;12.65;7.30;;;17.20;95.40;;;;;;4151767;28;20432;-63
2023/03/24 09:10:28;;;;;;;14.55;7.53;;;17.40;94.80;;;;;;4150044;28;20046;-65
2023/03/24 09:12:29;;;;;;;19.25;7.22;;;17.40;94.70;;;;;;4158460;28;20091;-65
2023/03/24 09:14:30;;;;;;;10.82;6.28;;;17.40;94.60;;;;;;4159156;28;20034;-65
2023/03/24 09:16:33;;;;;;;11.05;5.75;;;17.60;94.40;;;;;;4153579;28;20038;-65
2023/03/24 09:18:34;;;;;;;9.80;5.95;;;17.60;93.90;;;;;;4143557;28;20045;-67
2023/03/24 09:20:35;;;;;;;9.77;5.72;;;17.70;93.80;;;;;;4145120;28;20030;-65
2023/03/24 09:22:38;;;;;;;7.90;5.05;;;17.60;93.20;;;;;;4151622;28;20041;-64
2023/03/24 09:24:40;;;;;;;9.98;4.88;;;17.70;92.60;;;;;;4145018;28;20030;-64
2023/03/24 09:26:41;;;;;;;12.02;4.28;;;17.80;92.50;;;;;;4143755;28;20433;-64
2023/03/24 09:28:42;;;;;;;8.25;4.72;;;18.10;91.70;;;;;;4145024;28;20041;-63
2023/03/24 09:30:43;;;;;;;11.02;4.53;;;18.20;91.10;;;;;;4143814;28;20441;-64
2023/03/24 09:32:45;;;;;;;9.20;4.15;;;18.20;91.00;;;;;;4144378;28;20422;-64
2023/03/24 09:34:46;;;;;;;8.23;4.47;;;18.30;90.70;;;;;;4143925;28;20037;-65
2023/03/24 09:36:48;;;;;;;8.98;4.20;;;18.40;90.50;;;;;;4144846;28;20486;-67
2023/03/24 09:38:49;;;;;;;6.38;3.88;;;18.50;90.20;;;;;;4144409;28;20426;-66
2023/03/24 09:40:59;;;;;;;4.07;3.40;;;18.50;90.00;;;;;;4143607;28;20104;-65
2023/03/24 09:43:03;;;;;;;4.95;3.13;;;18.60;87.60;;;;;;4147808;28;20048;-64
2023/03/24 09:45:15;;;;;;;5.78;3.13;;;18.90;87.80;;;;;;4156893;28;20030;-65
2023/03/24 09:47:22;;;;;;;4.03;2.88;;;19.20;85.90;;;;;;4146843;28;20449;-65
2023/03/24 09:49:28;;;;;;;4.15;2.88;;;19.40;85.30;;;;;;4147126;28;20038;-64
2023/03/24 09:51:29;;;;;;;7.57;3.40;;;19.70;83.30;;;;;;4145417;28;20437;-65
2023/03/24 09:53:44;;;;;;;4.45;2.50;;;19.70;82.90;;;;;;4146725;28;20034;-65
2023/03/24 09:55:47;;;;;;;5.95;2.97;;;19.70;81.80;;;;;;4147567;28;20026;-64
2023/03/24 09:57:49;;;;;;;4.65;2.58;;;19.80;82.40;;;;;;4146601;28;20041;-64
2023/03/24 09:59:51;;;;;;;6.03;2.92;;;19.80;81.30;;;;;;4147427;28;20064;-65
2023/03/24 10:01:52;;;;;;;5.97;2.88;;;19.80;80.60;;;;;;4146010;28;20033;-64
2023/03/24 10:03:57;;;;;;;4.68;2.83;;;19.70;80.40;;;;;;4147985;28;20058;-64
2023/03/24 10:06:16;;;;;;;3.53;3.22;;;19.90;80.20;;;;;;4145491;28;20107;-64
2023/03/24 10:08:25;;;;;;;4.50;2.58;;;19.90;77.30;;;;;;4147213;28;20127;-64
2023/03/24 10:11:00;;;;;;;4.38;3.00;;;19.90;78.60;;;;;;4150771;28;20064;-65
2023/03/24 10:13:06;;;;;;;4.93;3.20;;;19.70;77.90;;;;;;4146575;28;20046;-65
2023/03/24 10:15:25;;;;;;;6.07;3.22;;;19.60;77.40;;;;;;4146257;28;20100;-65
2023/03/24 10:17:47;;;;;;;6.35;3.45;;;19.60;76.60;;;;;;4158044;28;20444;-64
2023/03/24 10:20:10;;;;;;;5.25;3.33;;;19.60;77.90;;;;;;4162240;28;20041;-65
2023/03/24 10:22:29;;;;;;;4.18;2.90;;;19.70;77.90;;;;;;4133379;28;20026;-64
2023/03/24 10:24:46;;;;;;;4.80;3.38;;;19.80;77.50;;;;;;4147253;28;20562;-64
2023/03/24 10:27:25;;;;;;;4.70;2.97;;;19.90;76.90;;;;;;4146158;28;20018;-66
2023/03/24 10:29:33;;;;;;;5.85;3.58;;;19.90;75.90;;;;;;4147075;28;20034;-65
2023/03/24 10:31:37;;;;;;;3.83;2.72;;;19.60;75.70;;;;;;4161880;28;20079;-65
2023/03/24 10:33:41;;;;;;;7.15;3.30;;;19.50;75.70;;;;;;4163593;28;20037;-66
2023/03/24 10:36:04;;;;;;;4.35;2.70;;;19.40;75.60;;;;;;4161797;28;20123;-65
2023/03/24 10:38:19;;;;;;;2.63;2.42;;;19.50;75.60;;;;;;4163114;28;20037;-65
2023/03/24 10:40:25;;;;;;;3.38;2.60;;;19.60;75.30;;;;;;4162271;28;20025;-64
2023/03/24 10:42:34;;;;;;;3.97;3.17;;;19.70;75.70;;;;;;4164019;28;20037;-65
2023/03/24 10:44:35;;;;;;;6.97;3.15;;;19.60;75.90;;;;;;4158408;28;20049;-66
2023/03/24 10:46:44;;;;;;;6.60;3.08;;;19.60;76.30;;;;;;4159485;28;20033;-66
2023/03/24 10:48:49;;;;;;;7.80;2.95;;;19.50;76.20;;;;;;4161409;28;20485;-65
2023/03/24 10:50:51;;;;;;;4.05;2.97;;;19.60;76.00;;;;;;4151753;28;20301;-66